ADDS METAR Data INFO
IDs: Format: Raw Decoded Include TAF

Data at: 1452 UTC 11 Dec 2017

KBMI 111356Z 18013KT 10SM FEW120 M02/M04 A2992 RMK AO2 SLP160 T10171039
KBMI 111256Z 18010KT 10SM CLR M03/M05 A2997 RMK AO2 SLP177 T10281050
KBMI 111156Z 19009KT 10SM CLR M02/M04 A3001 RMK AO2 SLP188 T10221044 11022 21067 55016
KBMI 111056Z AUTO 18008KT 10SM FEW120 M03/M04 A3000 RMK AO2 SLP185 T10281044
KBMI 110956Z AUTO 18005KT 10SM CLR M03/M05 A3003 RMK AO2 SLP192 T10331050
KBMI 110856Z AUTO 20006KT 10SM BKN110 M04/M05 A3005 RMK AO2 SLP202 T10391050 56014
KBMI 110756Z AUTO 22003KT 10SM BKN090 M06/M07 A3007 RMK AO2 SLP209 T10611072
KBMI 110656Z AUTO 00000KT 10SM CLR M06/M08 A3006 RMK AO2 SLP207 T10561078
KBMI 110556Z AUTO 00000KT 10SM CLR M05/M07 A3010 RMK AO2 SLP218 T10501067 10000 21056 400441067 57004
KBMI 110456Z AUTO 24004KT 10SM CLR M04/M06 A3011 RMK AO2 SLP221 T10391061
KBMI 110356Z 00000KT 10SM CLR M04/M07 A3010 RMK AO2 SLP221 T10441067
KBMI 110256Z 32005KT 10SM CLR M03/M06 A3011 RMK AO2 SLP224 T10281061 51018
KBMI 110156Z 33006KT 10SM CLR M02/M06 A3009 RMK AO2 SLP219 T10171056
KBMI 110056Z 32007KT 10SM SCT120 M01/M05 A3008 RMK AO2 SLP214 T10111050
KBMI 102356Z 33009KT 10SM CLR 00/M05 A3006 RMK AO2 SLP205 T00001050 10044 21006 51033
KBMI 102256Z 32009KT 10SM CLR 02/M05 A3003 RMK AO2 SLP197 T00171050
KBMI 102156Z 31012KT 10SM CLR 03/M05 A2999 RMK AO2 SLP181 T00281050
KBMI 102056Z 28017G21KT 10SM CLR 04/M05 A2996 RMK AO2 SLP170 T00391050 53010
KBMI 101956Z 28016KT 10SM CLR 04/M05 A2992 RMK AO2 SLP158 T00441050
KBMI 101856Z 27014KT 10SM CLR 03/M06 A2991 RMK AO2 SLP154 T00331061
KBMI 101756Z 27012G21KT 10SM CLR 02/M07 A2993 RMK AO2 SLP161 T00221067 10033 21050 55003
KBMI 101656Z 24019G24KT 10SM CLR 01/M07 A2992 RMK AO2 SLP161 T00111067
KBMI 101556Z 22020G25KT 10SM CLR 00/M07 A2992 RMK AO2 PRESFR SLP160 T00001067
KBMI 101456Z 20019G23KT 10SM CLR M02/M07 A2994 RMK AO2 SLP163 T10221072 58023
KBMI 101356Z 20016G21KT 10SM CLR M04/M08 A2997 RMK AO2 SLP175 T10441083
KBMI 101256Z COR 21015KT 10SM SCT090 M05/M09 A2999 RMK AO2 SLP180 T10501089
KBMI 101156Z 22016KT 10SM OVC090 M05/M08 A3000 RMK AO2 SLP187 T10501083 11050 21067 56021
KBMI 101056Z AUTO 22012KT 10SM BKN110 M06/M09 A3001 RMK AO2 SLP189 T10561089
KBMI 100956Z AUTO 22012KT 10SM OVC100 M06/M09 A3003 RMK AO2 SLP195 T10561089
KBMI 100856Z AUTO 23009KT 10SM OVC110 M06/M09 A3007 RMK AO2 SLP208 T10611089 56016
KBMI 100756Z AUTO 25010KT 10SM CLR M06/M09 A3009 RMK AO2 SLP213 T10611094
KBMI 100656Z AUTO 26009KT 10SM SCT110 M06/M10 A3010 RMK AO2 SLP218 T10611100
KBMI 100556Z AUTO 25006KT 10SM CLR M07/M11 A3012 RMK AO2 SLP225 T10671106 11039 21072 400001072 58003 TSNO
KBMI 100456Z AUTO 27006KT 10SM CLR M07/M11 A3012 RMK AO2 SLP227 T10671106
KBMI 100356Z 27007KT 10SM CLR M06/M11 A3012 RMK AO2 SLP226 T10611106
KBMI 100256Z 26006KT 10SM CLR M06/M10 A3013 RMK AO2 SLP227 T10611100 51015